• Join FlightAware (Why Join?)
  • Login
  • US Flag 
12:17AM EDT


 

Airport Tracker/Info


-or-


 

Live Flight TrackerFlight Track Log ✈ EJA382 ✈ 06-Jun-2013 ✈ KMDW - KBTL

Flight Track Log - Related Links

Times and Time Zones

All times are in EDT time to prevent confusion due to time zone crossing. See the EJA382 flight status page for this flight to view local times or setup timezone preferences in your user account.

Time Position Orientation Groundspeed Altitude Reporting Facility
EDT Latitude Longitude Course Direction KTS MPH feet Rate Location/Type
08:41PM 41.8000 -87.7167 90° East 168 193 2,800  Level Chicago TRACON
08:42PM 41.8000 -87.6500 90° East 213 245 5,100 1,320 Climbing Chicago TRACON
08:43PM 41.8000 -87.5500 90° East 273 314 5,500 2,280 Climbing Chicago TRACON
08:44PM 41.8000 -87.4500 90° East 295 339 9,500 4,080 Climbing Chicago TRACON
08:44PM 41.7919 -87.4328 122° Southeast 287 330 10,400 2,640 Climbing Chicago Center
08:45PM 41.7828 -87.3225 96° East 298 343 13,000 1,200 Climbing Chicago Center
08:46PM 41.7686 -87.1622 97° East 369 425 13,000  Level Chicago Center
08:47PM 41.7600 -87.0250 95° East 372 428 13,000  Level Chicago Center
08:48PM 41.7636 -86.8878 88° East 370 426 13,000  Level Chicago Center
08:49PM 41.7650 -86.7500 89° East 370 426 13,000  Level Chicago Center
08:50PM 41.7986 -86.6058 73° East 373 429 13,000  Level Chicago Center
08:51PM 41.8436 -86.4794 64° Northeast 374 430 13,000  Level Chicago Center
08:52PM 41.8878 -86.3525 65° Northeast 377 434 13,000 -300 Level Chicago Center
08:53PM 41.9311 -86.2286 65° Northeast 368 423 12,400 -960 Descending Chicago Center
08:54PM 41.9711 -86.1119 65° Northeast 350 403 11,100 -720 Descending Chicago Center
08:55PM 42.0133 -85.9925 65° Northeast 352 405 11,000 -240 Descending Chicago Center
08:56PM 42.0597 -85.8581 65° Northeast 355 409 10,700 -1,260 Descending Chicago Center
08:57PM 42.0972 -85.7492 65° Northeast 295 339 8,400 -2,460 Descending Chicago Center
08:58PM 42.1300 -85.6558 65° Northeast 280 322 5,700 -2,580 Descending Chicago Center
08:59PM 42.1606 -85.5658 65° Northeast 270 311 3,100 -1,560 Descending Chicago Center
09:00PM 42.1869 -85.4881 65° Northeast 243 280 2,500 -300 Descending Chicago Center
09:01PM 42.2142 -85.4097 65° Northeast 229 264 2,500  Level Chicago Center
09:02PM 42.2469 -85.3294 61° Northeast 204 235 2,500 -300 Level Chicago Center
09:04PM 42.2689 -85.3006 44° Northeast 128 147 1,900 -540 Descending Chicago Center
09:05PM 42.2872 -85.2803 39° Northeast 115 132 1,500 -420 Descending Chicago Center
09:07PM 42.3000 -85.2500 66° East  Level FlightAware Approximate